Terminal Aerodrome Forecast
Issued by NWS

Home | Current Version | Previous Version | Text Only | Print | Product List | Glossary On
Versions: 1 2 3 4 5 6 7 8 9 10 11 12 13 14 15 16 17 18 19 20 21 22
930
FTUS46 KPDT 072320
TAFBDN
TAF
KBDN 072320Z 0800/0824 34004KT P6SM SCT150 OVC200
     FM080400 VRB04KT P6SM SCT100 OVC150
     FM081100 VRB04KT 3SM -SN BR BKN015 OVC025
     FM081400 15005KT 1SM -SN BR BKN010 OVC020=

USA.gov is the U.S. government's official web portal to all federal, state and local government web resources and services.